sensor_id;sensor_type;location;lat;lon;timestamp;P1;durP1;ratioP1;P2;durP2;ratioP2
55134;SDS011;41031;44.750;11.308;2022-07-10T00:02:08;5.80;;;1.53;;
55134;SDS011;41031;44.750;11.308;2022-07-10T00:04:36;3.43;;;1.90;;
55134;SDS011;41031;44.750;11.308;2022-07-10T00:07:03;3.77;;;1.50;;
55134;SDS011;41031;44.750;11.308;2022-07-10T00:09:31;1.60;;;1.50;;
55134;SDS011;41031;44.750;11.308;2022-07-10T00:12:01;3.90;;;1.70;;
55134;SDS011;41031;44.750;11.308;2022-07-10T00:14:29;2.37;;;1.50;;
55134;SDS011;41031;44.750;11.308;2022-07-10T00:17:00;3.17;;;1.40;;
55134;SDS011;41031;44.750;11.308;2022-07-10T00:19:27;2.80;;;1.33;;
55134;SDS011;41031;44.750;11.308;2022-07-10T00:21:54;4.90;;;1.63;;
55134;SDS011;41031;44.750;11.308;2022-07-10T00:24:21;4.30;;;1.57;;
55134;SDS011;41031;44.750;11.308;2022-07-10T00:26:52;4.10;;;1.40;;
55134;SDS011;41031;44.750;11.308;2022-07-10T00:29:20;2.30;;;1.60;;
55134;SDS011;41031;44.750;11.308;2022-07-10T00:31:47;2.43;;;1.67;;
55134;SDS011;41031;44.750;11.308;2022-07-10T00:34:14;2.13;;;1.83;;
55134;SDS011;41031;44.750;11.308;2022-07-10T00:36:42;3.73;;;1.80;;
55134;SDS011;41031;44.750;11.308;2022-07-10T00:39:10;5.13;;;1.40;;
55134;SDS011;41031;44.750;11.308;2022-07-10T00:41:38;2.83;;;1.80;;
55134;SDS011;41031;44.750;11.308;2022-07-10T00:44:05;1.47;;;1.30;;
55134;SDS011;41031;44.750;11.308;2022-07-10T00:46:33;1.93;;;1.10;;
55134;SDS011;41031;44.750;11.308;2022-07-10T00:49:00;3.57;;;1.30;;
55134;SDS011;41031;44.750;11.308;2022-07-10T00:51:28;1.30;;;1.20;;
55134;SDS011;41031;44.750;11.308;2022-07-10T00:53:56;1.97;;;1.70;;
55134;SDS011;41031;44.750;11.308;2022-07-10T00:56:25;1.77;;;1.60;;
55134;SDS011;41031;44.750;11.308;2022-07-10T00:58:54;4.60;;;1.83;;
55134;SDS011;41031;44.750;11.308;2022-07-10T01:01:21;2.93;;;1.50;;
55134;SDS011;41031;44.750;11.308;2022-07-10T01:03:50;1.50;;;1.40;;
55134;SDS011;41031;44.750;11.308;2022-07-10T01:06:18;3.13;;;1.70;;
55134;SDS011;41031;44.750;11.308;2022-07-10T01:08:46;2.37;;;1.83;;
55134;SDS011;41031;44.750;11.308;2022-07-10T01:11:14;5.57;;;1.97;;
55134;SDS011;41031;44.750;11.308;2022-07-10T01:13:42;3.57;;;1.43;;
55134;SDS011;41031;44.750;11.308;2022-07-10T01:16:11;2.30;;;1.50;;
55134;SDS011;41031;44.750;11.308;2022-07-10T01:18:40;7.47;;;1.80;;
55134;SDS011;41031;44.750;11.308;2022-07-10T01:21:22;3.47;;;1.80;;
55134;SDS011;41031;44.750;11.308;2022-07-10T01:24:04;1.57;;;1.47;;
55134;SDS011;41031;44.750;11.308;2022-07-10T01:26:34;3.27;;;1.50;;
55134;SDS011;41031;44.750;11.308;2022-07-10T01:29:04;2.37;;;1.47;;
55134;SDS011;41031;44.750;11.308;2022-07-10T01:31:33;4.80;;;2.00;;
55134;SDS011;41031;44.750;11.308;2022-07-10T01:34:04;3.60;;;1.30;;
55134;SDS011;41031;44.750;11.308;2022-07-10T01:36:33;1.73;;;1.63;;
55134;SDS011;41031;44.750;11.308;2022-07-10T01:39:01;2.17;;;1.50;;
55134;SDS011;41031;44.750;11.308;2022-07-10T01:41:29;3.90;;;1.47;;
55134;SDS011;41031;44.750;11.308;2022-07-10T01:43:57;2.47;;;1.70;;
55134;SDS011;41031;44.750;11.308;2022-07-10T01:46:25;2.30;;;1.70;;
55134;SDS011;41031;44.750;11.308;2022-07-10T01:48:53;4.47;;;2.37;;
55134;SDS011;41031;44.750;11.308;2022-07-10T01:51:20;2.00;;;1.63;;
55134;SDS011;41031;44.750;11.308;2022-07-10T01:53:48;1.93;;;1.43;;
55134;SDS011;41031;44.750;11.308;2022-07-10T01:56:15;2.13;;;1.57;;
55134;SDS011;41031;44.750;11.308;2022-07-10T01:58:45;4.73;;;1.90;;
55134;SDS011;41031;44.750;11.308;2022-07-10T02:01:12;5.10;;;1.87;;
55134;SDS011;41031;44.750;11.308;2022-07-10T02:03:40;2.40;;;2.10;;
55134;SDS011;41031;44.750;11.308;2022-07-10T02:06:26;3.10;;;2.10;;
55134;SDS011;41031;44.750;11.308;2022-07-10T02:08:53;3.23;;;2.17;;
55134;SDS011;41031;44.750;11.308;2022-07-10T02:11:21;4.77;;;2.20;;
55134;SDS011;41031;44.750;11.308;2022-07-10T02:13:48;4.13;;;2.73;;
55134;SDS011;41031;44.750;11.308;2022-07-10T02:16:16;2.27;;;2.07;;
55134;SDS011;41031;44.750;11.308;2022-07-10T02:18:44;3.00;;;2.00;;
55134;SDS011;41031;44.750;11.308;2022-07-10T02:21:11;5.67;;;2.10;;
55134;SDS011;41031;44.750;11.308;2022-07-10T02:23:39;3.13;;;1.97;;
55134;SDS011;41031;44.750;11.308;2022-07-10T02:26:09;3.27;;;2.17;;
55134;SDS011;41031;44.750;11.308;2022-07-10T02:28:37;2.13;;;1.70;;
55134;SDS011;41031;44.750;11.308;2022-07-10T02:31:05;1.97;;;1.87;;
55134;SDS011;41031;44.750;11.308;2022-07-10T02:33:33;4.37;;;1.53;;
55134;SDS011;41031;44.750;11.308;2022-07-10T02:36:01;3.13;;;2.10;;
55134;SDS011;41031;44.750;11.308;2022-07-10T02:38:33;1.77;;;1.63;;
55134;SDS011;41031;44.750;11.308;2022-07-10T02:41:02;4.27;;;1.80;;
55134;SDS011;41031;44.750;11.308;2022-07-10T02:43:31;2.30;;;1.93;;
55134;SDS011;41031;44.750;11.308;2022-07-10T02:45:59;4.33;;;2.33;;
55134;SDS011;41031;44.750;11.308;2022-07-10T02:48:29;2.10;;;1.50;;
55134;SDS011;41031;44.750;11.308;2022-07-10T02:50:56;2.83;;;1.40;;
55134;SDS011;41031;44.750;11.308;2022-07-10T02:53:23;4.80;;;2.00;;
55134;SDS011;41031;44.750;11.308;2022-07-10T02:55:51;7.10;;;2.10;;
55134;SDS011;41031;44.750;11.308;2022-07-10T02:58:18;6.40;;;2.37;;
55134;SDS011;41031;44.750;11.308;2022-07-10T03:00:46;4.73;;;1.87;;
55134;SDS011;41031;44.750;11.308;2022-07-10T03:03:13;2.00;;;1.80;;
55134;SDS011;41031;44.750;11.308;2022-07-10T03:05:44;1.57;;;1.47;;
55134;SDS011;41031;44.750;11.308;2022-07-10T03:08:12;2.30;;;1.83;;
55134;SDS011;41031;44.750;11.308;2022-07-10T03:10:41;2.50;;;1.90;;
55134;SDS011;41031;44.750;11.308;2022-07-10T03:13:09;1.87;;;1.70;;
55134;SDS011;41031;44.750;11.308;2022-07-10T03:15:37;3.00;;;2.00;;
55134;SDS011;41031;44.750;11.308;2022-07-10T03:18:05;1.90;;;1.80;;
55134;SDS011;41031;44.750;11.308;2022-07-10T03:20:32;2.50;;;1.53;;
55134;SDS011;41031;44.750;11.308;2022-07-10T03:23:00;3.60;;;1.73;;
55134;SDS011;41031;44.750;11.308;2022-07-10T03:25:28;3.90;;;1.50;;
55134;SDS011;41031;44.750;11.308;2022-07-10T03:27:56;2.80;;;1.90;;
55134;SDS011;41031;44.750;11.308;2022-07-10T03:30:23;2.17;;;1.83;;
55134;SDS011;41031;44.750;11.308;2022-07-10T03:32:51;2.97;;;2.07;;
55134;SDS011;41031;44.750;11.308;2022-07-10T03:35:20;3.20;;;1.50;;
55134;SDS011;41031;44.750;11.308;2022-07-10T03:37:48;5.00;;;1.80;;
55134;SDS011;41031;44.750;11.308;2022-07-10T03:40:17;4.93;;;1.70;;
55134;SDS011;41031;44.750;11.308;2022-07-10T03:42:45;2.37;;;1.70;;
55134;SDS011;41031;44.750;11.308;2022-07-10T03:45:14;2.30;;;1.80;;
55134;SDS011;41031;44.750;11.308;2022-07-10T03:47:42;2.27;;;1.77;;
55134;SDS011;41031;44.750;11.308;2022-07-10T03:50:11;5.33;;;1.80;;
55134;SDS011;41031;44.750;11.308;2022-07-10T03:52:39;4.33;;;1.70;;
55134;SDS011;41031;44.750;11.308;2022-07-10T03:55:08;5.33;;;2.43;;
55134;SDS011;41031;44.750;11.308;2022-07-10T03:57:36;3.03;;;1.60;;
55134;SDS011;41031;44.750;11.308;2022-07-10T04:00:24;6.47;;;1.93;;
55134;SDS011;41031;44.750;11.308;2022-07-10T04:03:03;3.30;;;1.90;;
55134;SDS011;41031;44.750;11.308;2022-07-10T04:05:31;4.60;;;1.97;;
55134;SDS011;41031;44.750;11.308;2022-07-10T04:08:02;3.17;;;1.97;;
55134;SDS011;41031;44.750;11.308;2022-07-10T04:10:30;2.13;;;2.00;;
55134;SDS011;41031;44.750;11.308;2022-07-10T04:12:58;2.27;;;1.90;;
55134;SDS011;41031;44.750;11.308;2022-07-10T04:15:25;3.57;;;1.97;;
55134;SDS011;41031;44.750;11.308;2022-07-10T04:17:53;49.07;;;11.13;;
55134;SDS011;41031;44.750;11.308;2022-07-10T04:20:20;49.03;;;9.83;;
55134;SDS011;41031;44.750;11.308;2022-07-10T04:22:48;42.17;;;9.37;;
55134;SDS011;41031;44.750;11.308;2022-07-10T04:25:16;35.30;;;8.23;;
55134;SDS011;41031;44.750;11.308;2022-07-10T04:27:43;71.77;;;17.57;;
55134;SDS011;41031;44.750;11.308;2022-07-10T04:30:10;49.77;;;13.73;;
55134;SDS011;41031;44.750;11.308;2022-07-10T04:32:37;37.70;;;10.10;;
55134;SDS011;41031;44.750;11.308;2022-07-10T04:35:05;15.73;;;5.20;;
55134;SDS011;41031;44.750;11.308;2022-07-10T04:37:33;29.97;;;6.03;;
55134;SDS011;41031;44.750;11.308;2022-07-10T04:40:01;14.77;;;3.87;;
55134;SDS011;41031;44.750;11.308;2022-07-10T04:42:28;17.33;;;4.33;;
55134;SDS011;41031;44.750;11.308;2022-07-10T04:44:55;11.73;;;3.77;;
55134;SDS011;41031;44.750;11.308;2022-07-10T04:47:23;10.03;;;2.20;;
55134;SDS011;41031;44.750;11.308;2022-07-10T04:49:50;1.60;;;1.50;;
55134;SDS011;41031;44.750;11.308;2022-07-10T04:52:17;3.60;;;1.70;;
55134;SDS011;41031;44.750;11.308;2022-07-10T04:54:44;5.03;;;1.60;;
55134;SDS011;41031;44.750;11.308;2022-07-10T04:57:12;5.20;;;1.77;;
55134;SDS011;41031;44.750;11.308;2022-07-10T04:59:39;5.73;;;1.60;;
55134;SDS011;41031;44.750;11.308;2022-07-10T05:02:06;4.57;;;1.80;;
55134;SDS011;41031;44.750;11.308;2022-07-10T05:04:35;1.80;;;1.23;;
55134;SDS011;41031;44.750;11.308;2022-07-10T05:07:02;1.50;;;1.40;;
55134;SDS011;41031;44.750;11.308;2022-07-10T05:09:29;3.20;;;1.30;;
55134;SDS011;41031;44.750;11.308;2022-07-10T05:11:57;6.83;;;1.60;;
55134;SDS011;41031;44.750;11.308;2022-07-10T05:14:24;3.53;;;1.07;;
55134;SDS011;41031;44.750;11.308;2022-07-10T05:16:52;1.97;;;1.47;;
55134;SDS011;41031;44.750;11.308;2022-07-10T05:19:20;2.47;;;1.47;;
55134;SDS011;41031;44.750;11.308;2022-07-10T05:21:48;1.90;;;1.63;;
55134;SDS011;41031;44.750;11.308;2022-07-10T05:24:15;2.20;;;1.40;;
55134;SDS011;41031;44.750;11.308;2022-07-10T05:26:43;2.80;;;1.53;;
55134;SDS011;41031;44.750;11.308;2022-07-10T05:29:10;2.17;;;1.40;;
55134;SDS011;41031;44.750;11.308;2022-07-10T05:31:37;1.70;;;1.50;;
55134;SDS011;41031;44.750;11.308;2022-07-10T05:34:05;2.73;;;1.53;;
55134;SDS011;41031;44.750;11.308;2022-07-10T05:36:32;3.33;;;1.60;;
55134;SDS011;41031;44.750;11.308;2022-07-10T05:38:59;1.50;;;1.20;;
55134;SDS011;41031;44.750;11.308;2022-07-10T05:41:27;1.60;;;1.20;;
55134;SDS011;41031;44.750;11.308;2022-07-10T05:43:54;2.97;;;1.40;;
55134;SDS011;41031;44.750;11.308;2022-07-10T05:46:22;1.30;;;1.20;;
55134;SDS011;41031;44.750;11.308;2022-07-10T05:48:49;4.57;;;1.33;;
55134;SDS011;41031;44.750;11.308;2022-07-10T05:51:16;1.30;;;1.20;;
55134;SDS011;41031;44.750;11.308;2022-07-10T05:54:03;2.37;;;1.20;;
55134;SDS011;41031;44.750;11.308;2022-07-10T05:56:31;1.80;;;1.30;;
55134;SDS011;41031;44.750;11.308;2022-07-10T05:58:58;4.00;;;1.30;;
55134;SDS011;41031;44.750;11.308;2022-07-10T06:01:26;1.30;;;1.20;;
55134;SDS011;41031;44.750;11.308;2022-07-10T06:03:54;3.33;;;1.40;;
55134;SDS011;41031;44.750;11.308;2022-07-10T06:06:21;1.30;;;1.20;;
55134;SDS011;41031;44.750;11.308;2022-07-10T06:08:48;1.20;;;1.10;;
55134;SDS011;41031;44.750;11.308;2022-07-10T06:11:16;1.30;;;1.20;;
55134;SDS011;41031;44.750;11.308;2022-07-10T06:13:43;2.27;;;1.20;;
55134;SDS011;41031;44.750;11.308;2022-07-10T06:16:10;1.73;;;1.10;;
55134;SDS011;41031;44.750;11.308;2022-07-10T06:18:37;2.73;;;1.10;;
55134;SDS011;41031;44.750;11.308;2022-07-10T06:21:05;2.07;;;1.13;;
55134;SDS011;41031;44.750;11.308;2022-07-10T06:23:32;3.50;;;1.40;;
55134;SDS011;41031;44.750;11.308;2022-07-10T06:26:00;1.07;;;1.00;;
55134;SDS011;41031;44.750;11.308;2022-07-10T06:28:27;3.30;;;1.30;;
55134;SDS011;41031;44.750;11.308;2022-07-10T06:30:54;4.10;;;1.13;;
55134;SDS011;41031;44.750;11.308;2022-07-10T06:33:26;2.30;;;1.30;;
55134;SDS011;41031;44.750;11.308;2022-07-10T06:35:55;5.77;;;1.70;;
55134;SDS011;41031;44.750;11.308;2022-07-10T06:38:26;1.30;;;1.20;;
55134;SDS011;41031;44.750;11.308;2022-07-10T06:40:55;2.37;;;1.50;;
55134;SDS011;41031;44.750;11.308;2022-07-10T06:43:23;3.23;;;1.40;;
55134;SDS011;41031;44.750;11.308;2022-07-10T06:45:51;1.40;;;1.20;;
55134;SDS011;41031;44.750;11.308;2022-07-10T06:48:21;3.03;;;1.57;;
55134;SDS011;41031;44.750;11.308;2022-07-10T06:50:52;1.60;;;1.50;;
55134;SDS011;41031;44.750;11.308;2022-07-10T06:53:20;2.93;;;1.63;;
55134;SDS011;41031;44.750;11.308;2022-07-10T06:55:52;2.80;;;1.30;;
55134;SDS011;41031;44.750;11.308;2022-07-10T06:58:20;1.40;;;1.27;;
55134;SDS011;41031;44.750;11.308;2022-07-10T07:00:48;2.00;;;1.20;;
55134;SDS011;41031;44.750;11.308;2022-07-10T07:03:15;1.37;;;1.20;;
55134;SDS011;41031;44.750;11.308;2022-07-10T07:05:46;3.23;;;1.20;;
55134;SDS011;41031;44.750;11.308;2022-07-10T07:08:15;3.30;;;1.40;;
55134;SDS011;41031;44.750;11.308;2022-07-10T07:10:43;2.13;;;1.43;;
55134;SDS011;41031;44.750;11.308;2022-07-10T07:13:11;1.20;;;1.10;;
55134;SDS011;41031;44.750;11.308;2022-07-10T07:15:39;1.50;;;1.00;;
55134;SDS011;41031;44.750;11.308;2022-07-10T07:18:13;2.70;;;1.13;;
55134;SDS011;41031;44.750;11.308;2022-07-10T07:20:43;5.63;;;1.20;;
55134;SDS011;41031;44.750;11.308;2022-07-10T07:23:29;2.73;;;1.33;;
55134;SDS011;41031;44.750;11.308;2022-07-10T07:25:56;2.57;;;1.00;;
55134;SDS011;41031;44.750;11.308;2022-07-10T07:28:24;1.37;;;1.23;;
55134;SDS011;41031;44.750;11.308;2022-07-10T07:30:51;66.20;;;7.13;;
55134;SDS011;41031;44.750;11.308;2022-07-10T07:33:19;6.03;;;1.50;;
55134;SDS011;41031;44.750;11.308;2022-07-10T07:35:46;15.27;;;3.33;;
55134;SDS011;41031;44.750;11.308;2022-07-10T07:38:13;22.77;;;4.27;;
55134;SDS011;41031;44.750;11.308;2022-07-10T07:40:41;38.90;;;7.10;;
55134;SDS011;41031;44.750;11.308;2022-07-10T07:43:08;5.90;;;2.53;;
55134;SDS011;41031;44.750;11.308;2022-07-10T07:45:37;2.03;;;1.03;;
55134;SDS011;41031;44.750;11.308;2022-07-10T07:48:04;5.77;;;1.37;;
55134;SDS011;41031;44.750;11.308;2022-07-10T07:50:32;1.07;;;0.97;;
55134;SDS011;41031;44.750;11.308;2022-07-10T07:53:05;2.60;;;0.80;;
55134;SDS011;41031;44.750;11.308;2022-07-10T07:55:33;2.10;;;1.10;;
55134;SDS011;41031;44.750;11.308;2022-07-10T07:58:02;1.83;;;1.00;;
55134;SDS011;41031;44.750;11.308;2022-07-10T08:00:30;1.10;;;0.80;;
55134;SDS011;41031;44.750;11.308;2022-07-10T08:02:58;0.97;;;0.80;;
55134;SDS011;41031;44.750;11.308;2022-07-10T08:05:29;1.57;;;1.07;;
55134;SDS011;41031;44.750;11.308;2022-07-10T08:07:59;0.87;;;0.60;;
55134;SDS011;41031;44.750;11.308;2022-07-10T08:10:33;1.07;;;0.90;;
55134;SDS011;41031;44.750;11.308;2022-07-10T08:13:08;2.00;;;1.00;;
55134;SDS011;41031;44.750;11.308;2022-07-10T08:15:35;2.30;;;0.80;;
55134;SDS011;41031;44.750;11.308;2022-07-10T08:18:02;2.87;;;0.87;;
55134;SDS011;41031;44.750;11.308;2022-07-10T08:20:34;3.07;;;0.73;;
55134;SDS011;41031;44.750;11.308;2022-07-10T08:23:07;1.50;;;0.80;;
55134;SDS011;41031;44.750;11.308;2022-07-10T08:25:35;0.70;;;0.70;;
55134;SDS011;41031;44.750;11.308;2022-07-10T08:28:02;2.87;;;1.00;;
55134;SDS011;41031;44.750;11.308;2022-07-10T08:30:32;1.07;;;0.90;;
55134;SDS011;41031;44.750;11.308;2022-07-10T08:33:00;2.20;;;0.90;;
55134;SDS011;41031;44.750;11.308;2022-07-10T08:35:27;4.77;;;1.10;;
55134;SDS011;41031;44.750;11.308;2022-07-10T08:37:54;0.73;;;0.60;;
55134;SDS011;41031;44.750;11.308;2022-07-10T08:40:22;0.93;;;0.80;;
55134;SDS011;41031;44.750;11.308;2022-07-10T08:42:49;3.47;;;0.90;;
55134;SDS011;41031;44.750;11.308;2022-07-10T08:45:17;1.57;;;0.97;;
55134;SDS011;41031;44.750;11.308;2022-07-10T08:47:46;3.50;;;0.80;;
55134;SDS011;41031;44.750;11.308;2022-07-10T08:50:23;0.90;;;0.70;;
55134;SDS011;41031;44.750;11.308;2022-07-10T08:55:25;2.07;;;1.13;;
55134;SDS011;41031;44.750;11.308;2022-07-10T08:57:54;1.60;;;0.80;;
55134;SDS011;41031;44.750;11.308;2022-07-10T09:00:27;2.10;;;1.10;;
55134;SDS011;41031;44.750;11.308;2022-07-10T09:02:54;2.03;;;0.80;;
55134;SDS011;41031;44.750;11.308;2022-07-10T09:05:23;0.87;;;0.80;;
55134;SDS011;41031;44.750;11.308;2022-07-10T09:07:53;0.90;;;0.63;;
55134;SDS011;41031;44.750;11.308;2022-07-10T09:10:21;1.30;;;0.97;;
55134;SDS011;41031;44.750;11.308;2022-07-10T09:15:22;2.50;;;1.10;;
55134;SDS011;41031;44.750;11.308;2022-07-10T09:17:58;0.80;;;0.77;;
55134;SDS011;41031;44.750;11.308;2022-07-10T09:22:58;2.37;;;0.90;;
55134;SDS011;41031;44.750;11.308;2022-07-10T09:25:35;1.40;;;0.73;;
55134;SDS011;41031;44.750;11.308;2022-07-10T09:28:03;2.10;;;0.90;;
55134;SDS011;41031;44.750;11.308;2022-07-10T09:30:39;3.33;;;0.90;;
55134;SDS011;41031;44.750;11.308;2022-07-10T09:33:14;0.93;;;0.87;;
55134;SDS011;41031;44.750;11.308;2022-07-10T09:41:13;1.03;;;0.70;;
55134;SDS011;41031;44.750;11.308;2022-07-10T09:43:45;1.80;;;0.80;;
55134;SDS011;41031;44.750;11.308;2022-07-10T09:46:14;0.83;;;0.70;;
55134;SDS011;41031;44.750;11.308;2022-07-10T09:48:47;2.10;;;0.80;;
55134;SDS011;41031;44.750;11.308;2022-07-10T09:51:17;2.97;;;1.40;;
55134;SDS011;41031;44.750;11.308;2022-07-10T09:53:44;0.70;;;0.70;;
55134;SDS011;41031;44.750;11.308;2022-07-10T09:56:12;1.13;;;0.80;;
55134;SDS011;41031;44.750;11.308;2022-07-10T09:58:40;1.03;;;0.60;;
55134;SDS011;41031;44.750;11.308;2022-07-10T10:01:08;1.23;;;0.63;;
55134;SDS011;41031;44.750;11.308;2022-07-10T10:03:36;1.07;;;0.77;;
55134;SDS011;41031;44.750;11.308;2022-07-10T10:08:51;1.03;;;0.83;;
55134;SDS011;41031;44.750;11.308;2022-07-10T10:11:41;1.47;;;0.87;;
55134;SDS011;41031;44.750;11.308;2022-07-10T10:14:18;2.50;;;0.97;;
55134;SDS011;41031;44.750;11.308;2022-07-10T10:16:48;1.83;;;0.73;;
55134;SDS011;41031;44.750;11.308;2022-07-10T10:19:18;0.83;;;0.80;;
55134;SDS011;41031;44.750;11.308;2022-07-10T10:22:04;0.80;;;0.80;;
55134;SDS011;41031;44.750;11.308;2022-07-10T10:24:40;0.83;;;0.70;;
55134;SDS011;41031;44.750;11.308;2022-07-10T10:27:13;0.93;;;0.83;;
55134;SDS011;41031;44.750;11.308;2022-07-10T10:29:42;0.90;;;0.63;;
55134;SDS011;41031;44.750;11.308;2022-07-10T10:32:12;4.50;;;0.80;;
55134;SDS011;41031;44.750;11.308;2022-07-10T10:40:03;0.73;;;0.67;;
55134;SDS011;41031;44.750;11.308;2022-07-10T10:42:39;1.03;;;0.80;;
55134;SDS011;41031;44.750;11.308;2022-07-10T10:48:08;3.10;;;0.70;;
55134;SDS011;41031;44.750;11.308;2022-07-10T10:51:01;2.43;;;1.10;;
55134;SDS011;41031;44.750;11.308;2022-07-10T10:53:28;1.37;;;0.90;;
55134;SDS011;41031;44.750;11.308;2022-07-10T10:58:38;1.47;;;1.03;;
55134;SDS011;41031;44.750;11.308;2022-07-10T11:06:42;2.03;;;0.70;;
55134;SDS011;41031;44.750;11.308;2022-07-10T11:09:32;1.10;;;1.00;;
55134;SDS011;41031;44.750;11.308;2022-07-10T11:12:01;6.73;;;1.00;;
55134;SDS011;41031;44.750;11.308;2022-07-10T11:14:29;0.97;;;0.90;;
55134;SDS011;41031;44.750;11.308;2022-07-10T11:16:58;0.83;;;0.83;;
55134;SDS011;41031;44.750;11.308;2022-07-10T11:19:27;1.13;;;0.77;;
55134;SDS011;41031;44.750;11.308;2022-07-10T11:21:58;3.03;;;1.10;;
55134;SDS011;41031;44.750;11.308;2022-07-10T11:24:42;1.90;;;0.80;;
55134;SDS011;41031;44.750;11.308;2022-07-10T11:27:41;1.93;;;0.90;;
55134;SDS011;41031;44.750;11.308;2022-07-10T11:30:16;0.60;;;0.60;;
55134;SDS011;41031;44.750;11.308;2022-07-10T11:32:43;0.80;;;0.80;;
55134;SDS011;41031;44.750;11.308;2022-07-10T11:35:14;2.50;;;1.00;;
55134;SDS011;41031;44.750;11.308;2022-07-10T11:38:00;0.93;;;0.77;;
55134;SDS011;41031;44.750;11.308;2022-07-10T11:40:29;4.00;;;1.13;;
55134;SDS011;41031;44.750;11.308;2022-07-10T11:42:57;1.47;;;0.83;;
55134;SDS011;41031;44.750;11.308;2022-07-10T11:45:26;2.30;;;0.80;;
55134;SDS011;41031;44.750;11.308;2022-07-10T11:47:57;1.53;;;0.80;;
55134;SDS011;41031;44.750;11.308;2022-07-10T11:50:25;1.27;;;0.83;;
55134;SDS011;41031;44.750;11.308;2022-07-10T11:52:54;2.67;;;1.00;;
55134;SDS011;41031;44.750;11.308;2022-07-10T11:55:23;3.27;;;0.80;;
55134;SDS011;41031;44.750;11.308;2022-07-10T11:57:55;0.97;;;0.80;;
55134;SDS011;41031;44.750;11.308;2022-07-10T12:02:54;1.20;;;0.73;;
55134;SDS011;41031;44.750;11.308;2022-07-10T12:05:33;2.50;;;0.98;;
55134;SDS011;41031;44.750;11.308;2022-07-10T12:08:05;0.90;;;0.70;;
55134;SDS011;41031;44.750;11.308;2022-07-10T12:10:33;2.13;;;0.80;;
55134;SDS011;41031;44.750;11.308;2022-07-10T12:13:11;0.97;;;0.83;;
55134;SDS011;41031;44.750;11.308;2022-07-10T12:15:41;1.00;;;0.80;;
55134;SDS011;41031;44.750;11.308;2022-07-10T12:18:17;1.80;;;1.13;;
55134;SDS011;41031;44.750;11.308;2022-07-10T12:20:46;0.70;;;0.60;;
55134;SDS011;41031;44.750;11.308;2022-07-10T12:23:18;2.10;;;1.40;;
55134;SDS011;41031;44.750;11.308;2022-07-10T12:25:47;1.33;;;0.93;;
55134;SDS011;41031;44.750;11.308;2022-07-10T12:28:17;1.90;;;1.10;;
55134;SDS011;41031;44.750;11.308;2022-07-10T12:30:45;1.90;;;1.00;;
55134;SDS011;41031;44.750;11.308;2022-07-10T12:33:20;5.83;;;0.93;;
55134;SDS011;41031;44.750;11.308;2022-07-10T12:35:50;1.23;;;0.90;;
55134;SDS011;41031;44.750;11.308;2022-07-10T12:38:18;0.70;;;0.70;;
55134;SDS011;41031;44.750;11.308;2022-07-10T12:40:46;0.80;;;0.80;;
55134;SDS011;41031;44.750;11.308;2022-07-10T12:43:23;0.67;;;0.60;;
55134;SDS011;41031;44.750;11.308;2022-07-10T12:49:09;0.70;;;0.70;;
55134;SDS011;41031;44.750;11.308;2022-07-10T12:51:46;1.10;;;1.00;;
55134;SDS011;41031;44.750;11.308;2022-07-10T12:54:37;1.83;;;1.13;;
55134;SDS011;41031;44.750;11.308;2022-07-10T12:57:04;1.13;;;1.00;;
55134;SDS011;41031;44.750;11.308;2022-07-10T12:59:36;2.93;;;1.10;;
55134;SDS011;41031;44.750;11.308;2022-07-10T13:02:14;1.40;;;1.10;;
55134;SDS011;41031;44.750;11.308;2022-07-10T13:04:52;0.90;;;0.90;;
55134;SDS011;41031;44.750;11.308;2022-07-10T13:07:34;1.20;;;1.10;;
55134;SDS011;41031;44.750;11.308;2022-07-10T13:10:04;0.70;;;0.70;;
55134;SDS011;41031;44.750;11.308;2022-07-10T13:12:33;2.40;;;1.00;;
55134;SDS011;41031;44.750;11.308;2022-07-10T13:15:04;2.07;;;0.77;;
55134;SDS011;41031;44.750;11.308;2022-07-10T13:17:32;2.40;;;1.00;;
55134;SDS011;41031;44.750;11.308;2022-07-10T13:19:59;2.13;;;0.87;;
55134;SDS011;41031;44.750;11.308;2022-07-10T13:22:28;4.90;;;1.10;;
55134;SDS011;41031;44.750;11.308;2022-07-10T13:24:55;2.13;;;1.23;;
55134;SDS011;41031;44.750;11.308;2022-07-10T13:27:25;1.47;;;1.10;;
55134;SDS011;41031;44.750;11.308;2022-07-10T13:29:53;1.07;;;0.80;;
55134;SDS011;41031;44.750;11.308;2022-07-10T13:32:23;3.57;;;0.87;;
55134;SDS011;41031;44.750;11.308;2022-07-10T13:34:55;1.10;;;0.83;;
55134;SDS011;41031;44.750;11.308;2022-07-10T13:37:23;2.73;;;1.27;;
55134;SDS011;41031;44.750;11.308;2022-07-10T13:39:50;0.90;;;0.90;;
55134;SDS011;41031;44.750;11.308;2022-07-10T13:42:17;1.00;;;0.90;;
55134;SDS011;41031;44.750;11.308;2022-07-10T13:44:46;1.43;;;0.90;;
55134;SDS011;41031;44.750;11.308;2022-07-10T13:47:15;2.07;;;1.00;;
55134;SDS011;41031;44.750;11.308;2022-07-10T13:49:42;2.00;;;0.83;;
55134;SDS011;41031;44.750;11.308;2022-07-10T13:52:10;1.10;;;1.00;;
55134;SDS011;41031;44.750;11.308;2022-07-10T13:54:37;3.63;;;1.10;;
55134;SDS011;41031;44.750;11.308;2022-07-10T13:57:04;0.90;;;0.90;;
55134;SDS011;41031;44.750;11.308;2022-07-10T13:59:32;1.10;;;1.00;;
55134;SDS011;41031;44.750;11.308;2022-07-10T14:01:59;1.90;;;1.20;;
55134;SDS011;41031;44.750;11.308;2022-07-10T14:04:26;1.07;;;0.80;;
55134;SDS011;41031;44.750;11.308;2022-07-10T14:06:53;1.27;;;0.90;;
55134;SDS011;41031;44.750;11.308;2022-07-10T14:09:21;1.40;;;1.13;;
55134;SDS011;41031;44.750;11.308;2022-07-10T14:11:53;1.93;;;0.80;;
55134;SDS011;41031;44.750;11.308;2022-07-10T14:14:22;1.30;;;1.00;;
55134;SDS011;41031;44.750;11.308;2022-07-10T14:16:50;3.10;;;1.00;;
55134;SDS011;41031;44.750;11.308;2022-07-10T14:19:19;0.97;;;0.97;;
55134;SDS011;41031;44.750;11.308;2022-07-10T14:21:47;1.77;;;1.13;;
55134;SDS011;41031;44.750;11.308;2022-07-10T14:24:17;1.13;;;0.83;;
55134;SDS011;41031;44.750;11.308;2022-07-10T14:26:44;1.47;;;0.70;;
55134;SDS011;41031;44.750;11.308;2022-07-10T14:29:13;1.00;;;1.00;;
55134;SDS011;41031;44.750;11.308;2022-07-10T14:31:40;1.37;;;0.80;;
55134;SDS011;41031;44.750;11.308;2022-07-10T14:34:07;2.10;;;0.90;;
55134;SDS011;41031;44.750;11.308;2022-07-10T14:36:38;2.90;;;0.83;;
55134;SDS011;41031;44.750;11.308;2022-07-10T14:39:05;2.50;;;0.70;;
55134;SDS011;41031;44.750;11.308;2022-07-10T14:41:33;1.17;;;0.80;;
55134;SDS011;41031;44.750;11.308;2022-07-10T14:44:01;3.93;;;0.77;;
55134;SDS011;41031;44.750;11.308;2022-07-10T14:46:29;0.87;;;0.77;;
55134;SDS011;41031;44.750;11.308;2022-07-10T14:48:56;1.00;;;1.00;;
55134;SDS011;41031;44.750;11.308;2022-07-10T14:51:24;1.67;;;1.03;;
55134;SDS011;41031;44.750;11.308;2022-07-10T14:53:52;0.60;;;0.60;;
55134;SDS011;41031;44.750;11.308;2022-07-10T14:56:23;2.07;;;1.03;;
55134;SDS011;41031;44.750;11.308;2022-07-10T14:58:52;0.83;;;0.80;;
55134;SDS011;41031;44.750;11.308;2022-07-10T15:01:39;1.10;;;0.70;;
55134;SDS011;41031;44.750;11.308;2022-07-10T15:04:07;1.83;;;0.70;;
55134;SDS011;41031;44.750;11.308;2022-07-10T15:06:35;1.67;;;0.80;;
55134;SDS011;41031;44.750;11.308;2022-07-10T15:09:02;2.63;;;0.70;;
55134;SDS011;41031;44.750;11.308;2022-07-10T15:11:30;0.80;;;0.77;;
55134;SDS011;41031;44.750;11.308;2022-07-10T15:14:01;0.60;;;0.60;;
55134;SDS011;41031;44.750;11.308;2022-07-10T15:16:31;2.30;;;0.87;;
55134;SDS011;41031;44.750;11.308;2022-07-10T15:18:59;1.77;;;0.90;;
55134;SDS011;41031;44.750;11.308;2022-07-10T15:21:27;0.90;;;0.70;;
55134;SDS011;41031;44.750;11.308;2022-07-10T15:23:56;1.60;;;0.90;;
55134;SDS011;41031;44.750;11.308;2022-07-10T15:26:23;1.37;;;0.97;;